Time;durP1;ratioP1;P1;durP2;ratioP2;P2;SDS_P1;SDS_P2;PMS_P1;PMS_P2;Temp;Humidity;BMP_temperature;BMP_pressure;BME280_temperature;BME280_humidity;BME280_pressure;Samples;Min_cycle;Max_cycle;Signal;HPM_P1;HPM_P2
2021/12/27 00:00:38;;;;;;;;;;;19.60;53.20;;;;;;5156124;27;19927;-75
2021/12/27 00:03:04;;;;;;;;;;;19.70;53.30;;;;;;5157788;27;20127;-74
2021/12/27 00:05:30;;;;;;;;;;;19.60;53.30;;;;;;5151450;27;20055;-73
2021/12/27 00:07:55;;;;;;;;;;;19.60;53.30;;;;;;5157940;27;19961;-74
2021/12/27 00:10:22;;;;;;;;;;;19.60;53.40;;;;;;5153825;27;19927;-73
2021/12/27 00:12:47;;;;;;;;;;;19.60;53.40;;;;;;5159733;27;19930;-74
2021/12/27 00:15:16;;;;;;;;;;;19.60;53.50;;;;;;5151725;27;19927;-75
2021/12/27 00:17:42;;;;;;;;;;;19.60;53.50;;;;;;5153209;27;19995;-74
2021/12/27 00:20:09;;;;;;;;;;;19.60;53.50;;;;;;5128268;27;20063;-74
2021/12/27 00:22:34;;;;;;;;;;;19.60;53.50;;;;;;5152439;27;19990;-74
2021/12/27 00:25:00;;;;;;;;;;;19.60;53.60;;;;;;5159095;27;19927;-73
2021/12/27 00:27:26;;;;;;;;;;;19.60;53.60;;;;;;5153520;27;19927;-74
2021/12/27 00:29:54;;;;;;;;;;;19.60;53.60;;;;;;5151320;27;19949;-73
2021/12/27 00:32:20;;;;;;;;;;;19.60;53.70;;;;;;5148745;27;20065;-74
2021/12/27 00:34:45;;;;;;;;;;;19.60;53.70;;;;;;5142215;27;20034;-73
2021/12/27 00:37:11;;;;;;;;;;;19.60;53.70;;;;;;5160697;27;19927;-73
2021/12/27 00:39:37;;;;;;;;;;;19.60;53.80;;;;;;5155502;27;20344;-73
2021/12/27 00:42:03;;;;;;;;;;;19.60;53.80;;;;;;5149661;27;19928;-73
2021/12/27 00:44:28;;;;;;;;;;;19.60;53.80;;;;;;5157330;27;19933;-73
2021/12/27 00:46:54;;;;;;;;;;;19.50;53.80;;;;;;5140364;27;20006;-73
2021/12/27 00:49:20;;;;;;;;;;;19.60;53.90;;;;;;5141845;27;20027;-73
2021/12/27 00:51:46;;;;;;;;;;;19.50;53.90;;;;;;5146255;27;19931;-74
2021/12/27 00:54:12;;;;;;;;;;;19.50;53.80;;;;;;5159262;27;19924;-73
2021/12/27 00:56:37;;;;;;;;;;;19.50;53.90;;;;;;5139269;27;19924;-73
2021/12/27 00:59:03;;;;;;;;;;;19.50;53.90;;;;;;5121871;27;19951;-73
2021/12/27 01:01:28;;;;;;;;;;;19.50;53.90;;;;;;5146809;27;19932;-74
2021/12/27 01:03:54;;;;;;;;;;;19.50;53.90;;;;;;5161321;27;19923;-74
2021/12/27 01:06:19;;;;;;;;;;;19.50;54.00;;;;;;5141228;27;20407;-74
2021/12/27 01:08:45;;;;;;;;;;;19.50;54.00;;;;;;5141538;27;20311;-74
2021/12/27 01:11:23;;;;;;;;;;;19.50;54.10;;;;;;5156556;27;20017;-74
2021/12/27 01:14:01;;;;;;;;;;;19.50;54.10;;;;;;5140235;27;20030;-74
2021/12/27 01:16:27;;;;;;;;;;;19.50;54.10;;;;;;5143056;27;19963;-74
2021/12/27 01:18:52;;;;;;;;;;;19.50;54.10;;;;;;5155897;27;20374;-73
2021/12/27 01:21:20;;;;;;;;;;;19.50;54.10;;;;;;5143631;27;19935;-75
2021/12/27 01:23:45;;;;;;;;;;;19.50;54.10;;;;;;5139261;27;20406;-75
2021/12/27 01:26:11;;;;;;;;;;;19.50;54.10;;;;;;5139635;27;19924;-74
2021/12/27 01:28:37;;;;;;;;;;;19.50;54.10;;;;;;5140557;27;19924;-74
2021/12/27 01:31:03;;;;;;;;;;;19.40;54.10;;;;;;5140770;27;19930;-75
2021/12/27 01:33:30;;;;;;;;;;;19.40;54.10;;;;;;5140406;27;19923;-75
2021/12/27 01:35:56;;;;;;;;;;;19.50;54.20;;;;;;5140832;27;19977;-76
2021/12/27 01:38:22;;;;;;;;;;;19.50;54.20;;;;;;5140736;27;19927;-75
2021/12/27 01:40:48;;;;;;;;;;;19.40;54.20;;;;;;5140809;27;19923;-75
2021/12/27 01:43:15;;;;;;;;;;;19.40;54.30;;;;;;5140611;27;19924;-74
2021/12/27 01:45:43;;;;;;;;;;;19.40;54.30;;;;;;5121945;27;20291;-74
2021/12/27 01:48:09;;;;;;;;;;;19.40;54.40;;;;;;5140438;27;19928;-74
2021/12/27 01:50:35;;;;;;;;;;;19.40;54.50;;;;;;5140061;27;19924;-75
2021/12/27 01:53:01;;;;;;;;;;;19.40;54.60;;;;;;5140042;27;19928;-76
2021/12/27 01:55:27;;;;;;;;;;;19.40;54.70;;;;;;5139784;27;20307;-75
2021/12/27 01:57:52;;;;;;;;;;;19.40;54.70;;;;;;5139887;27;19924;-74
2021/12/27 02:00:18;;;;;;;;;;;19.40;54.90;;;;;;5140040;27;20019;-75
2021/12/27 02:02:44;;;;;;;;;;;19.40;55.00;;;;;;5140233;27;19925;-75
2021/12/27 02:05:10;;;;;;;;;;;19.40;55.10;;;;;;5139351;27;19928;-75
2021/12/27 02:07:36;;;;;;;;;;;19.40;55.20;;;;;;5139685;27;20489;-75
2021/12/27 02:10:02;;;;;;;;;;;19.40;55.30;;;;;;5139693;27;19924;-75
2021/12/27 02:12:29;;;;;;;;;;;19.40;55.20;;;;;;5141033;27;19924;-75
2021/12/27 02:14:55;;;;;;;;;;;19.40;55.30;;;;;;5142836;27;19931;-75
2021/12/27 02:17:21;;;;;;;;;;;19.40;55.40;;;;;;5142609;27;19963;-74
2021/12/27 02:19:47;;;;;;;;;;;19.30;55.40;;;;;;5157643;27;20370;-75
2021/12/27 02:22:12;;;;;;;;;;;19.40;55.40;;;;;;5165157;27;20338;-74
2021/12/27 02:24:40;;;;;;;;;;;19.40;55.50;;;;;;5164514;27;19923;-74
2021/12/27 02:27:06;;;;;;;;;;;19.40;55.60;;;;;;5163760;27;19967;-75
2021/12/27 02:29:31;;;;;;;;;;;19.40;55.70;;;;;;5164170;27;19931;-75
2021/12/27 02:31:57;;;;;;;;;;;19.40;55.60;;;;;;5164242;27;20302;-75
2021/12/27 02:34:22;;;;;;;;;;;19.40;55.70;;;;;;5163555;27;20295;-75
2021/12/27 02:36:48;;;;;;;;;;;19.30;55.60;;;;;;5163525;27;20292;-75
2021/12/27 02:39:14;;;;;;;;;;;19.40;55.80;;;;;;5164362;27;19928;-75
2021/12/27 02:41:40;;;;;;;;;;;19.30;55.70;;;;;;5164392;27;19947;-75
2021/12/27 02:44:05;;;;;;;;;;;19.30;55.80;;;;;;5163887;27;20284;-75
2021/12/27 02:46:31;;;;;;;;;;;19.30;55.70;;;;;;5163842;27;20591;-75
2021/12/27 02:48:57;;;;;;;;;;;19.30;55.80;;;;;;5163861;27;19924;-75
2021/12/27 02:51:22;;;;;;;;;;;19.30;55.90;;;;;;5163606;27;20437;-76
2021/12/27 02:53:48;;;;;;;;;;;19.30;55.90;;;;;;5163810;27;19934;-76
2021/12/27 02:56:14;;;;;;;;;;;19.30;55.80;;;;;;5145115;27;20367;-75
2021/12/27 02:58:40;;;;;;;;;;;19.30;55.90;;;;;;5163764;27;19969;-76
2021/12/27 03:01:07;;;;;;;;;;;19.30;55.90;;;;;;5162472;27;19923;-75
2021/12/27 03:03:33;;;;;;;;;;;19.30;56.70;;;;;;5163425;27;19924;-76
2021/12/27 03:05:58;;;;;;;;;;;19.30;56.10;;;;;;5163046;27;20206;-76
2021/12/27 03:08:26;;;;;;;;;;;19.30;56.20;;;;;;5163522;27;20048;-76
2021/12/27 03:10:53;;;;;;;;;;;19.30;56.20;;;;;;5163826;27;19924;-75
2021/12/27 03:13:23;;;;;;;;;;;19.30;56.30;;;;;;5163769;27;19927;-75
2021/12/27 03:15:56;;;;;;;;;;;19.30;56.30;;;;;;5163743;27;20026;-75
2021/12/27 03:18:21;;;;;;;;;;;19.30;56.30;;;;;;5163799;27;20028;-75
2021/12/27 03:20:47;;;;;;;;;;;19.30;56.30;;;;;;5163554;27;20066;-75
2021/12/27 03:23:13;;;;;;;;;;;19.30;56.30;;;;;;5163230;27;20373;-75
2021/12/27 03:25:39;;;;;;;;;;;19.30;56.30;;;;;;5143898;27;19931;-74
2021/12/27 03:28:05;;;;;;;;;;;19.30;56.40;;;;;;5163315;27;20406;-75
2021/12/27 03:30:31;;;;;;;;;;;19.30;56.40;;;;;;5163676;27;19973;-75
2021/12/27 03:32:56;;;;;;;;;;;19.30;56.40;;;;;;5163400;27;19951;-75
2021/12/27 03:35:27;;;;;;;;;;;19.30;56.50;;;;;;5163496;27;20394;-75
2021/12/27 03:37:55;;;;;;;;;;;19.30;56.50;;;;;;5162634;27;19930;-75
2021/12/27 03:40:20;;;;;;;;;;;19.30;56.60;;;;;;5161997;27;20380;-74
2021/12/27 03:42:49;;;;;;;;;;;19.30;56.60;;;;;;5162046;27;19923;-74
2021/12/27 03:45:20;;;;;;;;;;;19.30;56.60;;;;;;5163620;27;20377;-75
2021/12/27 03:47:45;;;;;;;;;;;19.30;56.70;;;;;;5162944;27;20596;-74
2021/12/27 03:50:11;;;;;;;;;;;19.30;56.90;;;;;;5163251;27;19958;-74
2021/12/27 03:52:37;;;;;;;;;;;19.30;56.90;;;;;;5162987;27;20000;-76
2021/12/27 03:55:04;;;;;;;;;;;19.30;56.80;;;;;;5163112;27;20303;-74
2021/12/27 03:57:31;;;;;;;;;;;19.20;56.80;;;;;;5162877;27;19967;-74
2021/12/27 04:03:01;;;;;;;;;;;19.20;56.80;;;;;;5077732;28;19924;-75
2021/12/27 04:05:27;;;;;;;;;;;19.30;56.90;;;;;;5078655;28;19932;-75
2021/12/27 04:08:09;;;;;;;;;;;19.20;56.90;;;;;;5078875;28;19929;-76
2021/12/27 04:10:35;;;;;;;;;;;19.30;56.80;;;;;;5078209;28;19925;-75
2021/12/27 04:13:00;;;;;;;;;;;19.30;56.90;;;;;;5078306;28;19925;-75
2021/12/27 04:15:26;;;;;;;;;;;19.30;56.90;;;;;;5078291;28;20068;-74
2021/12/27 04:17:52;;;;;;;;;;;19.20;56.80;;;;;;5078137;28;19948;-74
2021/12/27 04:20:18;;;;;;;;;;;19.20;56.90;;;;;;5078135;28;19929;-74
2021/12/27 04:22:43;;;;;;;;;;;19.20;56.90;;;;;;5078364;28;20533;-75
2021/12/27 04:25:09;;;;;;;;;;;19.30;56.90;;;;;;5078239;28;19945;-74
2021/12/27 04:27:34;;;;;;;;;;;19.20;56.80;;;;;;5077869;28;19929;-74
2021/12/27 04:30:00;;;;;;;;;;;19.20;56.80;;;;;;5077710;28;20024;-75
2021/12/27 04:32:25;;;;;;;;;;;19.20;57.00;;;;;;5077681;28;19931;-75
2021/12/27 04:34:52;;;;;;;;;;;19.20;57.10;;;;;;5157979;27;20018;-74
2021/12/27 04:37:18;;;;;;;;;;;19.30;57.10;;;;;;5161709;27;20014;-75
2021/12/27 04:39:44;;;;;;;;;;;19.20;57.00;;;;;;5161847;27;20006;-74
2021/12/27 04:42:09;;;;;;;;;;;19.30;57.10;;;;;;5161856;27;20394;-74
2021/12/27 04:44:35;;;;;;;;;;;19.20;57.10;;;;;;5162034;27;20018;-75
2021/12/27 04:47:00;;;;;;;;;;;19.20;57.10;;;;;;5162193;27;19927;-75
2021/12/27 04:49:26;;;;;;;;;;;19.20;57.20;;;;;;5161990;27;20029;-75
2021/12/27 04:51:51;;;;;;;;;;;19.20;57.30;;;;;;5161717;27;19927;-74
2021/12/27 04:54:17;;;;;;;;;;;19.20;57.30;;;;;;5162179;27;20287;-74
2021/12/27 04:56:43;;;;;;;;;;;19.20;57.30;;;;;;5162139;27;20452;-75
2021/12/27 04:59:08;;;;;;;;;;;19.20;57.30;;;;;;5161964;27;19971;-74
2021/12/27 05:01:34;;;;;;;;;;;19.20;57.40;;;;;;5161686;27;19949;-74
2021/12/27 05:03:59;;;;;;;;;;;19.20;57.50;;;;;;5161712;27;19924;-74
2021/12/27 05:06:27;;;;;;;;;;;19.20;57.60;;;;;;5162184;27;19923;-74
2021/12/27 05:08:53;;;;;;;;;;;19.20;57.40;;;;;;5161844;27;19994;-74
2021/12/27 05:11:19;;;;;;;;;;;19.20;57.60;;;;;;5161131;27;20391;-74
2021/12/27 05:13:45;;;;;;;;;;;19.20;57.60;;;;;;5161333;27;19950;-74
2021/12/27 05:16:10;;;;;;;;;;;19.20;57.70;;;;;;5161888;27;20382;-74
2021/12/27 05:18:36;;;;;;;;;;;19.20;57.80;;;;;;5161514;27;19924;-75
2021/12/27 05:21:01;;;;;;;;;;;19.20;57.80;;;;;;5161653;27;19931;-75
2021/12/27 05:23:27;;;;;;;;;;;19.20;57.70;;;;;;5161399;27;20320;-75
2021/12/27 05:25:52;;;;;;;;;;;19.20;57.70;;;;;;5161072;27;19930;-75
2021/12/27 05:28:18;;;;;;;;;;;19.20;57.70;;;;;;5161321;27;19923;-76
2021/12/27 05:30:47;;;;;;;;;;;19.30;57.70;;;;;;5161701;27;20004;-75
2021/12/27 05:33:14;;;;;;;;;;;19.20;57.80;;;;;;5161799;27;20388;-75
2021/12/27 05:35:39;;;;;;;;;;;19.20;57.60;;;;;;5161469;27;19923;-75
2021/12/27 05:38:05;;;;;;;;;;;19.20;57.80;;;;;;5161768;27;19958;-76
2021/12/27 05:40:31;;;;;;;;;;;19.20;57.90;;;;;;5161917;27;19924;-75
2021/12/27 05:42:56;;;;;;;;;;;19.20;57.90;;;;;;5161800;27;19930;-76
2021/12/27 05:45:22;;;;;;;;;;;19.20;57.80;;;;;;5153789;27;19923;-76
2021/12/27 05:47:47;;;;;;;;;;;19.20;57.80;;;;;;5160244;27;19931;-77
2021/12/27 05:50:14;;;;;;;;;;;19.20;57.90;;;;;;5162462;27;19989;-75
2021/12/27 05:52:40;;;;;;;;;;;19.20;57.80;;;;;;5161815;27;20392;-75
2021/12/27 05:55:06;;;;;;;;;;;19.20;58.00;;;;;;5155044;27;19973;-75
2021/12/27 05:57:32;;;;;;;;;;;19.20;57.90;;;;;;5146775;27;19924;-74
2021/12/27 05:59:57;;;;;;;;;;;19.20;58.00;;;;;;5144250;27;20281;-75
2021/12/27 06:02:23;;;;;;;;;;;19.20;58.00;;;;;;5143752;27;20400;-75
2021/12/27 06:04:49;;;;;;;;;;;19.20;58.10;;;;;;5143193;27;19939;-75
2021/12/27 06:07:15;;;;;;;;;;;19.20;58.10;;;;;;5142815;27;20364;-75
2021/12/27 06:09:40;;;;;;;;;;;19.20;58.60;;;;;;5143197;27;19924;-75
2021/12/27 06:12:06;;;;;;;;;;;19.20;58.10;;;;;;5143257;27;19923;-75
2021/12/27 06:14:31;;;;;;;;;;;19.10;58.00;;;;;;5143367;27;19989;-76
2021/12/27 06:16:57;;;;;;;;;;;19.10;58.10;;;;;;5143006;27;19963;-75
2021/12/27 06:19:23;;;;;;;;;;;19.10;58.10;;;;;;5143810;27;19924;-75
2021/12/27 06:21:49;;;;;;;;;;;19.10;58.20;;;;;;5143458;27;19928;-75
2021/12/27 06:24:14;;;;;;;;;;;19.10;58.20;;;;;;5142918;27;19973;-74
2021/12/27 06:26:40;;;;;;;;;;;19.10;58.20;;;;;;5124243;27;19924;-74
2021/12/27 06:29:05;;;;;;;;;;;19.10;58.30;;;;;;5142742;27;19927;-74
2021/12/27 06:31:31;;;;;;;;;;;19.20;58.30;;;;;;5143537;27;20026;-75
2021/12/27 06:33:56;;;;;;;;;;;19.10;58.30;;;;;;5142850;27;19924;-76
2021/12/27 06:36:22;;;;;;;;;;;19.10;58.30;;;;;;5143166;27;20334;-74
2021/12/27 06:38:47;;;;;;;;;;;19.10;58.30;;;;;;5142784;27;19949;-75
2021/12/27 06:41:13;;;;;;;;;;;19.10;58.30;;;;;;5143315;27;19924;-75
2021/12/27 06:43:38;;;;;;;;;;;19.10;58.30;;;;;;5143177;27;19950;-75
2021/12/27 06:46:04;;;;;;;;;;;19.10;58.40;;;;;;5142723;27;19923;-74
2021/12/27 06:48:29;;;;;;;;;;;19.10;58.30;;;;;;5143111;27;19927;-75
2021/12/27 06:50:55;;;;;;;;;;;19.10;58.40;;;;;;5143376;27;19954;-75
2021/12/27 06:53:21;;;;;;;;;;;19.10;58.40;;;;;;5143294;27;19973;-75
2021/12/27 06:55:48;;;;;;;;;;;19.10;58.40;;;;;;5142994;27;19924;-76
2021/12/27 06:58:13;;;;;;;;;;;19.10;58.40;;;;;;5142372;27;20631;-75
2021/12/27 07:00:39;;;;;;;;;;;19.10;58.50;;;;;;5161208;27;20246;-75
2021/12/27 07:03:04;;;;;;;;;;;19.10;58.50;;;;;;5163895;27;20015;-75
2021/12/27 07:05:30;;;;;;;;;;;19.10;58.50;;;;;;5162907;27;19923;-75
2021/12/27 07:07:55;;;;;;;;;;;19.10;58.60;;;;;;5162978;27;19930;-74
2021/12/27 07:10:22;;;;;;;;;;;19.10;58.60;;;;;;5163686;27;20334;-75
2021/12/27 07:12:47;;;;;;;;;;;19.10;58.60;;;;;;5163473;27;19923;-75
2021/12/27 07:15:13;;;;;;;;;;;19.10;58.70;;;;;;5162841;27;19977;-75
2021/12/27 07:17:39;;;;;;;;;;;19.10;58.70;;;;;;5144369;27;19930;-75
2021/12/27 07:20:05;;;;;;;;;;;19.10;58.80;;;;;;5162996;27;19959;-74
2021/12/27 07:22:31;;;;;;;;;;;19.10;58.80;;;;;;5145361;27;20445;-75
2021/12/27 07:24:56;;;;;;;;;;;19.10;58.90;;;;;;5153185;27;19968;-75
2021/12/27 07:27:22;;;;;;;;;;;19.10;58.90;;;;;;5154292;27;19927;-75
2021/12/27 07:29:47;;;;;;;;;;;19.10;59.00;;;;;;5142310;27;19924;-76
2021/12/27 07:32:13;;;;;;;;;;;19.10;59.00;;;;;;5145709;27;19973;-74
2021/12/27 07:34:39;;;;;;;;;;;19.10;59.10;;;;;;5150981;27;19935;-74
2021/12/27 07:37:04;;;;;;;;;;;19.10;59.10;;;;;;5153352;27;19930;-72
2021/12/27 07:39:30;;;;;;;;;;;19.10;59.20;;;;;;5142161;27;19935;-75
2021/12/27 07:41:55;;;;;;;;;;;19.10;59.20;;;;;;5142136;27;20359;-74
2021/12/27 07:44:21;;;;;;;;;;;19.10;59.20;;;;;;5142179;27;19973;-75
2021/12/27 07:46:46;;;;;;;;;;;19.10;59.10;;;;;;5128058;27;19934;-75
2021/12/27 07:49:13;;;;;;;;;;;19.10;59.20;;;;;;5152444;27;19930;-75
2021/12/27 07:51:38;;;;;;;;;;;19.10;59.30;;;;;;5162660;27;20528;-74
2021/12/27 07:54:05;;;;;;;;;;;19.10;59.30;;;;;;5162953;27;19923;-74
2021/12/27 07:56:30;;;;;;;;;;;19.10;59.30;;;;;;5163069;27;20419;-74
2021/12/27 07:58:56;;;;;;;;;;;19.10;59.30;;;;;;5162987;27;19966;-75
2021/12/27 08:01:22;;;;;;;;;;;19.10;59.50;;;;;;5162023;27;19924;-75
2021/12/27 08:03:47;;;;;;;;;;;19.10;59.40;;;;;;5153852;27;19972;-74
2021/12/27 08:06:13;;;;;;;;;;;19.10;59.40;;;;;;5142570;27;19985;-74
2021/12/27 08:08:38;;;;;;;;;;;19.10;59.50;;;;;;5153683;27;20361;-74
2021/12/27 08:11:04;;;;;;;;;;;19.10;59.50;;;;;;5144944;27;19956;-74
2021/12/27 08:13:29;;;;;;;;;;;19.10;59.50;;;;;;5158781;27;19931;-74
2021/12/27 08:15:57;;;;;;;;;;;19.10;59.40;;;;;;5154551;27;28231;-74
2021/12/27 08:18:23;;;;;;;;;;;19.10;59.50;;;;;;5151929;27;20307;-75
2021/12/27 08:20:48;;;;;;;;;;;19.10;59.50;;;;;;5147936;27;19935;-74
2021/12/27 08:23:15;;;;;;;;;;;19.00;59.30;;;;;;5141789;27;19928;-77
2021/12/27 08:25:40;;;;;;;;;;;19.00;59.40;;;;;;5148936;27;19928;-78
2021/12/27 08:28:06;;;;;;;;;;;19.50;58.40;;;;;;5154135;27;19927;-79
2021/12/27 08:30:32;;;;;;;;;;;18.40;56.10;;;;;;5155815;27;19927;-78
2021/12/27 08:32:59;;;;;;;;;;;;;;;;;;5135704;27;19927;-79
2021/12/27 08:35:25;;;;;;;;;;;18.00;71.80;;;;;;5144157;27;20007;-79
2021/12/27 08:37:50;;;;;;;;;;;17.60;58.70;;;;;;5141323;27;19967;-79
2021/12/27 08:40:16;;;;;;;;;;;17.40;53.70;;;;;;5141266;27;19967;-80
2021/12/27 08:42:41;;;;;;;;;;;17.40;61.50;;;;;;5127511;27;19932;-81
2021/12/27 08:45:08;;;;;;;;;;;17.50;62.20;;;;;;5149558;27;20017;-81
2021/12/27 08:47:33;;;;;;;;;;;17.90;62.40;;;;;;5157026;27;20393;-80
2021/12/27 08:50:02;;;;;;;;;;;18.00;53.40;;;;;;5149956;27;19927;-79
2021/12/27 08:52:29;;;;;;;;;;;18.30;54.20;;;;;;5154262;27;19928;-75
2021/12/27 08:54:55;;;;;;;;;;;18.40;54.40;;;;;;5134823;27;19928;-77
2021/12/27 08:57:21;;;;;;;;;;;18.10;50.20;;;;;;5145935;27;19931;-78
2021/12/27 08:59:46;;;;;;;;;;;17.60;49.80;;;;;;5151568;27;20638;-81
2021/12/27 09:02:12;;;;;;;;;;;17.60;51.90;;;;;;5159167;27;19928;-82
2021/12/27 09:04:38;;;;;;;;;;;17.90;53.30;;;;;;5148936;27;19934;-79
2021/12/27 09:07:04;;;;;;;;;;;18.10;52.80;;;;;;5155497;27;19946;-79
2021/12/27 09:09:29;;;;;;;;;;;18.10;52.70;;;;;;5150735;27;20355;-82
2021/12/27 09:11:55;;;;;;;;;;;18.30;53.30;;;;;;5152243;27;20451;-79
2021/12/27 09:14:20;;;;;;;;;;;18.30;52.90;;;;;;5155338;27;19931;-83
2021/12/27 09:16:46;;;;;;;;;;;18.40;53.00;;;;;;5159814;27;19935;-79
2021/12/27 09:19:12;;;;;;;;;;;18.40;53.00;;;;;;5150409;27;19950;-79
2021/12/27 09:21:38;;;;;;;;;;;18.40;53.00;;;;;;5160358;27;20388;-80
2021/12/27 09:24:03;;;;;;;;;;;18.40;53.00;;;;;;5160197;27;20026;-80
2021/12/27 09:26:29;;;;;;;;;;;18.30;52.70;;;;;;5159941;27;20060;-80
2021/12/27 09:28:56;;;;;;;;;;;18.30;52.50;;;;;;5160838;27;20025;-81
2021/12/27 09:31:22;;;;;;;;;;;19.00;53.50;;;;;;5159335;27;19929;-80
2021/12/27 09:33:47;;;;;;;;;;;18.20;52.50;;;;;;5142780;27;19930;-80
2021/12/27 09:36:13;;;;;;;;;;;18.20;52.80;;;;;;5142277;27;20380;-80
2021/12/27 09:38:38;;;;;;;;;;;18.20;52.40;;;;;;5161282;27;19928;-80
2021/12/27 09:41:04;;;;;;;;;;;18.20;52.40;;;;;;5161335;27;19931;-80
2021/12/27 09:43:30;;;;;;;;;;;18.20;52.30;;;;;;5161779;27;19923;-80
2021/12/27 09:45:55;;;;;;;;;;;18.20;52.00;;;;;;5161133;27;19923;-80
2021/12/27 09:48:21;;;;;;;;;;;18.20;51.90;;;;;;5142765;27;19927;-80
2021/12/27 09:50:56;;;;;;;;;;;18.20;52.10;;;;;;5161697;27;19931;-80
2021/12/27 09:53:22;;;;;;;;;;;18.10;51.70;;;;;;5161515;27;19928;-80
2021/12/27 09:55:47;;;;;;;;;;;18.10;51.60;;;;;;5161524;27;19954;-80
2021/12/27 09:58:13;;;;;;;;;;;18.10;51.90;;;;;;5161404;27;19924;-80
2021/12/27 10:00:41;;;;;;;;;;;18.10;51.60;;;;;;5161567;27;20010;-80
2021/12/27 10:03:09;;;;;;;;;;;18.10;51.50;;;;;;5161220;27;19923;-81
2021/12/27 10:05:35;;;;;;;;;;;18.10;51.50;;;;;;5160966;27;19927;-81
2021/12/27 10:08:01;;;;;;;;;;;18.10;51.30;;;;;;5141970;27;19968;-80
2021/12/27 10:10:26;;;;;;;;;;;18.10;51.20;;;;;;5160886;27;19931;-80
2021/12/27 10:12:53;;;;;;;;;;;18.10;51.00;;;;;;5160758;27;19924;-80
2021/12/27 10:15:20;;;;;;;;;;;18.10;51.30;;;;;;5161213;27;20406;-80
2021/12/27 10:17:46;;;;;;;;;;;18.00;50.80;;;;;;5161106;27;19970;-80
2021/12/27 10:20:12;;;;;;;;;;;18.00;50.70;;;;;;5160805;27;19931;-80
2021/12/27 10:22:42;;;;;;;;;;;18.00;51.00;;;;;;5141242;27;19924;-81
2021/12/27 10:25:08;;;;;;;;;;;18.00;50.60;;;;;;5160561;27;19998;-81
2021/12/27 10:27:38;;;;;;;;;;;18.00;50.50;;;;;;5160616;27;19972;-80
2021/12/27 10:30:15;;;;;;;;;;;18.00;50.50;;;;;;5161278;27;20400;-80
2021/12/27 10:32:41;;;;;;;;;;;18.00;50.30;;;;;;5161481;27;20616;-80
2021/12/27 10:35:08;;;;;;;;;;;18.00;50.30;;;;;;5164702;27;20133;-80
2021/12/27 10:37:35;;;;;;;;;;;18.00;50.10;;;;;;5164629;27;20368;-80
2021/12/27 10:40:03;;;;;;;;;;;18.00;50.20;;;;;;5145582;27;20548;-80
2021/12/27 10:42:40;;;;;;;;;;;18.00;50.00;;;;;;5163853;27;19930;-80
2021/12/27 10:45:07;;;;;;;;;;;17.90;49.90;;;;;;5164153;27;19924;-80
2021/12/27 10:47:41;;;;;;;;;;;17.90;50.00;;;;;;5163938;27;19931;-81
2021/12/27 10:50:09;;;;;;;;;;;17.90;49.80;;;;;;5164187;27;19923;-80
2021/12/27 10:52:42;;;;;;;;;;;17.90;49.80;;;;;;5164002;27;19988;-80
2021/12/27 10:55:08;;;;;;;;;;;17.90;49.70;;;;;;5144615;27;19924;-80
2021/12/27 10:57:33;;;;;;;;;;;17.90;49.60;;;;;;5163653;27;19923;-80
2021/12/27 11:00:13;;;;;;;;;;;17.90;49.70;;;;;;5164007;27;20265;-80
2021/12/27 11:02:38;;;;;;;;;;;17.90;49.50;;;;;;5163792;27;20028;-80
2021/12/27 11:05:11;;;;;;;;;;;17.80;49.70;;;;;;5163738;27;20404;-80
2021/12/27 11:07:39;;;;;;;;;;;17.90;49.30;;;;;;5163527;27;20379;-80
2021/12/27 11:10:05;;;;;;;;;;;17.90;49.60;;;;;;5163852;27;19923;-80
2021/12/27 11:12:30;;;;;;;;;;;17.90;49.40;;;;;;5163995;27;19930;-80
2021/12/27 11:14:56;;;;;;;;;;;17.90;49.20;;;;;;5163973;27;19968;-80
2021/12/27 11:17:22;;;;;;;;;;;17.90;49.10;;;;;;5163401;27;19973;-80
2021/12/27 11:19:47;;;;;;;;;;;17.90;49.00;;;;;;5163688;27;19924;-80
2021/12/27 11:22:13;;;;;;;;;;;17.90;49.00;;;;;;5163663;27;19923;-81
2021/12/27 11:24:39;;;;;;;;;;;17.80;49.20;;;;;;5145455;27;19988;-81
2021/12/27 11:27:13;;;;;;;;;;;17.80;48.90;;;;;;5164061;27;20001;-81
2021/12/27 11:29:39;;;;;;;;;;;17.80;49.00;;;;;;5163822;27;20010;-81
2021/12/27 11:32:14;;;;;;;;;;;17.90;49.10;;;;;;5144569;27;20319;-81
2021/12/27 11:34:52;;;;;;;;;;;17.80;48.80;;;;;;5163471;27;19927;-82
2021/12/27 11:37:18;;;;;;;;;;;17.90;48.90;;;;;;5144125;27;19927;-81
2021/12/27 11:39:43;;;;;;;;;;;17.90;48.90;;;;;;5163633;27;20383;-81
2021/12/27 11:42:10;;;;;;;;;;;17.80;48.80;;;;;;5163573;27;20367;-81
2021/12/27 11:44:45;;;;;;;;;;;17.90;48.80;;;;;;5143943;27;19931;-81
2021/12/27 11:47:11;;;;;;;;;;;17.80;48.60;;;;;;5162501;27;20276;-80
2021/12/27 11:49:37;;;;;;;;;;;17.80;48.70;;;;;;5144017;27;19924;-82
2021/12/27 11:52:21;;;;;;;;;;;17.80;48.60;;;;;;5163145;27;19924;-81
2021/12/27 11:54:51;;;;;;;;;;;17.80;48.50;;;;;;5163070;27;19923;-81
2021/12/27 11:57:36;;;;;;;;;;;17.80;48.60;;;;;;5162292;27;19923;-81
2021/12/27 12:00:21;;;;;;;;;;;17.80;48.60;;;;;;5163140;27;19923;-81
2021/12/27 12:02:51;;;;;;;;;;;17.90;48.90;;;;;;5163019;27;19924;-81
2021/12/27 12:05:35;;;;;;;;;;;17.80;48.60;;;;;;5144287;27;20390;-81
2021/12/27 12:08:02;;;;;;;;;;;17.80;48.60;;;;;;5163339;27;20336;-81
2021/12/27 12:10:28;;;;;;;;;;;17.90;48.70;;;;;;5162542;27;19923;-81
2021/12/27 12:13:12;;;;;;;;;;;17.90;49.70;;;;;;5162184;27;19949;-81
2021/12/27 12:15:53;;;;;;;;;;;17.90;48.60;;;;;;5162521;27;19923;-81
2021/12/27 12:18:19;;;;;;;;;;;17.90;48.60;;;;;;5163007;27;19931;-81
2021/12/27 12:20:44;;;;;;;;;;;17.90;48.60;;;;;;5162515;27;19923;-81
2021/12/27 12:23:10;;;;;;;;;;;17.90;48.60;;;;;;5162944;27;19931;-81
2021/12/27 12:25:37;;;;;;;;;;;17.90;48.50;;;;;;5163131;27;19923;-80
2021/12/27 12:28:04;;;;;;;;;;;17.90;48.50;;;;;;5163466;27;19927;-80
2021/12/27 12:30:34;;;;;;;;;;;17.90;48.40;;;;;;5163294;27;20945;-80
2021/12/27 12:33:10;;;;;;;;;;;17.90;48.50;;;;;;5163486;27;19927;-80
2021/12/27 12:35:42;;;;;;;;;;;17.90;48.40;;;;;;5162617;27;19924;-80
2021/12/27 12:38:08;;;;;;;;;;;17.80;48.30;;;;;;5144558;27;20399;-80
2021/12/27 12:40:34;;;;;;;;;;;17.80;48.30;;;;;;5163132;27;20479;-80
2021/12/27 12:42:59;;;;;;;;;;;17.80;48.30;;;;;;5162488;27;19971;-80
2021/12/27 12:45:28;;;;;;;;;;;17.80;48.30;;;;;;5162891;27;20308;-80
2021/12/27 12:47:56;;;;;;;;;;;17.80;48.20;;;;;;5162797;27;19950;-80
2021/12/27 12:53:46;;;;;;;;;;;17.90;48.30;;;;;;5116930;28;19947;-81
2021/12/27 12:56:12;;;;;;;;;;;17.80;48.40;;;;;;5117519;28;20333;-81
2021/12/27 12:58:39;;;;;;;;;;;17.90;48.80;;;;;;5118076;28;20352;-81
2021/12/27 13:01:08;;;;;;;;;;;17.70;48.30;;;;;;5118967;28;20038;-81
2021/12/27 13:03:34;;;;;;;;;;;17.80;48.20;;;;;;5118698;28;19924;-80
2021/12/27 13:06:03;;;;;;;;;;;17.70;48.20;;;;;;5118735;28;20269;-81
2021/12/27 13:09:04;;;;;;;;;;;17.70;48.40;;;;;;5118941;28;19974;-81
2021/12/27 13:11:30;;;;;;;;;;;17.80;48.10;;;;;;5117642;28;20445;-80
2021/12/27 13:14:05;;;;;;;;;;;17.70;48.70;;;;;;5118241;28;19928;-80
2021/12/27 13:19:15;;;;;;;;;;;17.70;48.50;;;;;;5120014;28;20011;-81
2021/12/27 13:21:41;;;;;;;;;;;17.90;48.70;;;;;;5119306;28;19928;-81
2021/12/27 13:24:07;;;;;;;;;;;17.70;48.40;;;;;;5118248;28;19928;-81
2021/12/27 13:26:33;;;;;;;;;;;17.60;48.50;;;;;;5118193;28;20450;-80
2021/12/27 13:28:58;;;;;;;;;;;17.70;48.10;;;;;;5120220;28;19954;-81
2021/12/27 13:34:27;;;;;;;;;;;17.80;47.90;;;;;;5160598;27;20087;-80
2021/12/27 13:36:55;;;;;;;;;;;17.60;48.40;;;;;;5162804;27;20018;-80
2021/12/27 13:39:27;;;;;;;;;;;17.30;47.60;;;;;;5161958;27;20014;-80
2021/12/27 13:41:54;;;;;;;;;;;17.60;47.70;;;;;;5162183;27;20286;-80
2021/12/27 13:44:24;;;;;;;;;;;17.50;47.80;;;;;;5161320;27;19928;-80
2021/12/27 13:46:51;;;;;;;;;;;17.60;47.80;;;;;;5161826;27;19931;-79
2021/12/27 13:49:18;;;;;;;;;;;17.50;47.90;;;;;;5162307;27;19924;-80
2021/12/27 13:51:44;;;;;;;;;;;17.50;47.70;;;;;;5161402;27;19923;-81
2021/12/27 13:54:13;;;;;;;;;;;17.70;47.80;;;;;;5161617;27;19930;-80
2021/12/27 13:56:39;;;;;;;;;;;17.50;47.60;;;;;;5161241;27;19942;-80
2021/12/27 13:59:09;;;;;;;;;;;17.50;47.80;;;;;;5142854;27;19931;-80
2021/12/27 14:01:36;;;;;;;;;;;17.50;47.60;;;;;;5161432;27;20270;-80
2021/12/27 14:04:15;;;;;;;;;;;17.50;47.70;;;;;;5160901;27;20490;-79
2021/12/27 14:06:41;;;;;;;;;;;17.50;47.60;;;;;;5161452;27;19931;-79
2021/12/27 14:09:07;;;;;;;;;;;17.50;47.60;;;;;;5163872;27;19923;-79
2021/12/27 14:11:45;;;;;;;;;;;17.50;47.60;;;;;;5165073;27;19927;-79
2021/12/27 14:14:10;;;;;;;;;;;17.50;47.60;;;;;;5164627;27;19970;-80
2021/12/27 14:16:37;;;;;;;;;;;17.50;47.60;;;;;;5164503;27;20354;-80
2021/12/27 14:19:14;;;;;;;;;;;17.40;47.50;;;;;;5164823;27;19974;-80
2021/12/27 14:21:54;;;;;;;;;;;17.50;47.50;;;;;;5145894;27;19930;-80
2021/12/27 14:24:30;;;;;;;;;;;17.40;47.50;;;;;;5164725;27;20041;-80
2021/12/27 14:26:56;;;;;;;;;;;17.50;47.60;;;;;;5164308;27;19930;-80
2021/12/27 14:29:22;;;;;;;;;;;17.50;47.60;;;;;;5164553;27;19972;-80